Time;durP1;ratioP1;P1;durP2;ratioP2;P2;SDS_P1;SDS_P2;PMS_P1;PMS_P2;Temp;Humidity;BMP_temperature;BMP_pressure;BME280_temperature;BME280_humidity;BME280_pressure;Samples;Min_cycle;Max_cycle;Signal;HPM_P1;HPM_P2
2023/05/16 00:01:55;;;;;;;6.63;5.63;;;9.80;99.90;;;;;;5018219;28;20025;-83
2023/05/16 00:04:22;;;;;;;6.37;5.37;;;9.70;99.90;;;;;;5019139;28;20029;-83
2023/05/16 00:06:48;;;;;;;6.60;5.50;;;9.80;99.90;;;;;;5017781;28;20049;-83
2023/05/16 00:09:13;;;;;;;7.50;5.10;;;9.80;99.90;;;;;;5017942;28;20021;-82
2023/05/16 00:11:39;;;;;;;7.23;5.30;;;9.70;99.90;;;;;;5018147;28;20037;-84
2023/05/16 00:14:04;;;;;;;6.70;5.70;;;9.70;99.90;;;;;;5053063;22;20072;-81
2023/05/16 00:16:30;;;;;;;5.67;5.07;;;9.70;99.90;;;;;;5032779;28;20033;-81
2023/05/16 00:18:59;;;;;;;6.07;5.23;;;9.70;99.90;;;;;;5033369;28;20044;-80
2023/05/16 00:21:25;;;;;;;5.70;5.10;;;9.70;99.90;;;;;;5032514;28;20036;-81
2023/05/16 00:23:53;;;;;;;7.33;5.50;;;9.70;99.90;;;;;;5022604;28;20038;-79
2023/05/16 00:26:22;;;;;;;7.63;4.97;;;9.70;99.90;;;;;;5020935;28;20037;-81
2023/05/16 00:28:55;;;;;;;7.73;5.07;;;9.70;99.90;;;;;;5022299;28;20087;-80
2023/05/16 00:31:23;;;;;;;7.60;5.87;;;9.70;99.90;;;;;;5022252;28;20127;-80
2023/05/16 00:33:50;;;;;;;7.70;5.80;;;9.60;99.90;;;;;;5021661;28;20084;-81
2023/05/16 00:36:21;;;;;;;8.07;5.60;;;9.60;99.90;;;;;;5021108;28;20080;-80
2023/05/16 00:38:49;;;;;;;8.63;5.70;;;9.60;99.90;;;;;;5021798;28;20071;-80
2023/05/16 00:41:16;;;;;;;6.20;5.60;;;9.60;99.90;;;;;;5021280;28;21051;-80
2023/05/16 00:43:41;;;;;;;8.17;5.80;;;9.60;99.90;;;;;;5020375;28;20113;-80
2023/05/16 00:46:07;;;;;;;8.83;5.83;;;9.60;99.90;;;;;;5021960;28;20446;-80
2023/05/16 00:48:33;;;;;;;6.97;6.20;;;9.60;99.90;;;;;;5022036;28;20061;-79
2023/05/16 00:51:01;;;;;;;8.77;5.70;;;9.60;99.90;;;;;;5020453;28;20033;-79
2023/05/16 00:53:27;;;;;;;6.40;5.27;;;9.60;99.90;;;;;;5021070;28;20095;-80
2023/05/16 00:55:55;;;;;;;6.73;5.30;;;9.60;99.90;;;;;;5022941;28;20021;-80
2023/05/16 00:58:23;;;;;;;6.87;5.57;;;9.60;99.90;;;;;;5021929;28;20037;-79
2023/05/16 01:00:51;;;;;;;6.57;5.37;;;9.60;99.90;;;;;;5021724;28;20037;-80
2023/05/16 01:03:20;;;;;;;7.53;6.50;;;9.60;99.90;;;;;;5025820;28;20042;-79
2023/05/16 01:05:45;;;;;;;8.60;5.73;;;9.60;99.90;;;;;;5025096;28;20025;-81
2023/05/16 01:08:11;;;;;;;7.23;5.97;;;9.60;99.90;;;;;;5024852;28;20037;-80
2023/05/16 01:10:50;;;;;;;6.03;5.33;;;9.60;99.90;;;;;;5026821;28;20033;-80
2023/05/16 01:13:32;;;;;;;6.67;5.77;;;9.60;99.90;;;;;;5025288;28;20060;-80
2023/05/16 01:16:09;;;;;;;6.40;5.67;;;9.60;99.90;;;;;;5026172;28;21544;-80
2023/05/16 01:19:04;;;;;;;6.70;5.77;;;9.60;99.90;;;;;;5028535;28;20493;-79
2023/05/16 01:21:48;;;;;;;6.53;5.93;;;9.60;99.90;;;;;;5028341;28;20034;-79
2023/05/16 01:24:29;;;;;;;7.70;6.33;;;9.60;99.90;;;;;;5029832;28;20087;-79
2023/05/16 01:26:56;;;;;;;6.93;6.00;;;9.60;99.90;;;;;;5026108;28;20038;-80
2023/05/16 01:29:21;;;;;;;7.90;6.10;;;9.60;99.90;;;;;;5024811;28;20021;-80
2023/05/16 01:31:47;;;;;;;10.53;7.03;;;9.60;99.90;;;;;;5023578;28;20044;-81
2023/05/16 01:34:13;;;;;;;7.57;5.93;;;9.60;99.90;;;;;;5023290;28;20033;-79
2023/05/16 01:37:09;;;;;;;6.67;5.97;;;9.60;99.90;;;;;;5022363;28;20021;-80
2023/05/16 01:39:46;;;;;;;7.50;6.10;;;9.50;99.90;;;;;;5022273;28;20056;-80
2023/05/16 01:42:16;;;;;;;8.50;6.53;;;9.50;99.90;;;;;;5021317;28;20080;-80
2023/05/16 01:45:03;;;;;;;8.80;6.57;;;9.50;99.90;;;;;;5022162;28;20041;-79
2023/05/16 01:47:32;;;;;;;7.37;6.57;;;9.50;99.90;;;;;;5021458;28;20052;-80
2023/05/16 01:50:07;;;;;;;7.13;6.00;;;9.50;99.90;;;;;;5023356;28;20048;-80
2023/05/16 01:52:51;;;;;;;10.35;7.10;;;9.50;99.90;;;;;;5023323;28;20065;-79
2023/05/16 01:55:31;;;;;;;8.17;7.00;;;9.40;99.90;;;;;;5022641;28;20041;-79
2023/05/16 01:57:58;;;;;;;8.47;6.77;;;9.40;99.90;;;;;;5023774;28;20030;-80
2023/05/16 02:00:24;;;;;;;9.57;7.17;;;9.40;99.90;;;;;;5022324;28;20026;-80
2023/05/16 02:02:50;;;;;;;9.57;7.37;;;9.40;99.90;;;;;;5021435;28;20034;-80
2023/05/16 02:05:15;;;;;;;9.30;7.77;;;9.30;99.90;;;;;;5023288;28;20031;-79
2023/05/16 02:07:44;;;;;;;7.87;7.07;;;9.30;99.90;;;;;;5022568;28;20041;-80
2023/05/16 02:10:12;;;;;;;9.90;7.63;;;9.30;99.90;;;;;;5021622;28;20168;-80
2023/05/16 02:12:41;;;;;;;9.10;7.83;;;9.30;99.90;;;;;;5020486;28;20044;-80
2023/05/16 02:15:14;;;;;;;11.00;6.90;;;9.30;99.90;;;;;;5022636;28;20811;-79
2023/05/16 02:17:42;;;;;;;9.40;7.47;;;9.30;99.90;;;;;;5022422;28;20037;-80
2023/05/16 02:20:10;;;;;;;8.20;6.87;;;9.30;99.90;;;;;;5021454;28;20033;-80
2023/05/16 02:22:41;;;;;;;9.93;7.33;;;9.30;99.90;;;;;;5022567;28;20029;-80
2023/05/16 02:25:12;;;;;;;8.03;6.77;;;9.20;99.90;;;;;;5022591;28;20029;-80
2023/05/16 02:27:42;;;;;;;11.83;7.73;;;9.20;99.90;;;;;;5021194;28;20570;-79
2023/05/16 02:30:09;;;;;;;7.67;6.87;;;9.20;99.90;;;;;;5021350;28;20040;-80
2023/05/16 02:32:35;;;;;;;9.67;7.47;;;9.20;99.90;;;;;;5021591;28;20044;-79
2023/05/16 02:35:00;;;;;;;10.10;7.90;;;9.20;99.90;;;;;;5022728;28;20034;-79
2023/05/16 02:37:26;;;;;;;9.37;7.70;;;9.20;99.90;;;;;;5021441;28;20037;-79
2023/05/16 02:39:51;;;;;;;8.43;7.33;;;9.10;99.90;;;;;;5020937;28;20800;-79
2023/05/16 02:42:19;;;;;;;13.63;8.00;;;9.10;99.90;;;;;;5020276;28;20105;-80
2023/05/16 02:44:45;;;;;;;11.43;7.50;;;9.00;99.90;;;;;;5020773;28;20040;-81
2023/05/16 02:47:13;;;;;;;8.87;7.77;;;9.00;99.90;;;;;;5021080;28;20431;-79
2023/05/16 02:49:41;;;;;;;9.33;7.97;;;9.00;99.90;;;;;;5023582;28;20060;-81
2023/05/16 02:52:06;;;;;;;8.70;7.80;;;9.00;99.90;;;;;;5020359;28;20037;-81
2023/05/16 02:54:32;;;;;;;8.83;7.80;;;9.00;99.90;;;;;;5023159;28;20037;-80
2023/05/16 02:56:58;;;;;;;11.03;8.23;;;9.00;99.90;;;;;;5023240;28;20048;-79
2023/05/16 02:59:24;;;;;;;10.13;8.43;;;9.00;99.90;;;;;;5022884;28;20030;-79
2023/05/16 03:01:52;;;;;;;11.00;8.70;;;9.00;99.90;;;;;;5022237;28;20037;-80
2023/05/16 03:04:17;;;;;;;10.17;8.03;;;9.00;99.90;;;;;;5022296;28;20042;-80
2023/05/16 03:06:43;;;;;;;10.23;8.60;;;9.00;99.90;;;;;;5020757;28;20051;-79
2023/05/16 03:09:08;;;;;;;9.37;8.10;;;9.00;99.90;;;;;;5021015;28;20041;-79
2023/05/16 03:11:34;;;;;;;11.40;9.40;;;9.00;99.90;;;;;;5020685;28;20045;-80
2023/05/16 03:14:00;;;;;;;12.17;9.80;;;9.00;99.90;;;;;;5020552;28;20032;-80
2023/05/16 03:16:25;;;;;;;13.13;8.87;;;8.90;99.90;;;;;;5020924;28;20022;-79
2023/05/16 03:18:51;;;;;;;10.17;8.57;;;9.00;99.90;;;;;;5020109;28;20057;-79
2023/05/16 03:21:17;;;;;;;10.17;8.63;;;8.90;99.90;;;;;;5020374;28;20040;-80
2023/05/16 03:23:42;;;;;;;10.50;8.40;;;8.90;99.90;;;;;;5019998;28;20025;-79
2023/05/16 03:26:13;;;;;;;8.87;7.90;;;8.90;99.90;;;;;;5020627;28;20026;-80
2023/05/16 03:28:41;;;;;;;9.93;8.07;;;8.90;99.90;;;;;;5021568;28;20113;-80
2023/05/16 03:31:13;;;;;;;12.27;8.77;;;8.90;99.90;;;;;;5020455;28;20557;-78
2023/05/16 03:33:42;;;;;;;10.53;8.33;;;8.90;99.90;;;;;;5020175;28;20064;-80
2023/05/16 03:36:08;;;;;;;13.23;8.20;;;8.90;99.90;;;;;;5020578;28;20053;-80
2023/05/16 03:38:33;;;;;;;12.40;8.80;;;8.90;99.90;;;;;;5019858;28;20056;-79
2023/05/16 03:40:59;;;;;;;10.10;8.40;;;8.90;99.90;;;;;;5019389;28;20033;-80
2023/05/16 03:43:25;;;;;;;10.80;8.67;;;8.90;99.90;;;;;;5019761;28;20117;-79
2023/05/16 03:45:50;;;;;;;11.40;9.17;;;8.90;99.90;;;;;;5019303;28;20088;-80
2023/05/16 03:48:16;;;;;;;10.57;8.37;;;8.90;99.90;;;;;;5019880;28;20048;-80
2023/05/16 03:50:41;;;;;;;12.43;8.87;;;8.90;99.90;;;;;;5020424;28;20093;-80
2023/05/16 03:53:08;;;;;;;12.33;8.30;;;8.90;99.90;;;;;;5003023;28;20502;-79
2023/05/16 03:55:34;;;;;;;10.73;8.00;;;8.90;99.90;;;;;;5020463;28;20030;-80
2023/05/16 03:58:02;;;;;;;10.03;8.37;;;8.90;99.90;;;;;;5020065;28;20387;-80
2023/05/16 04:00:27;;;;;;;10.97;8.73;;;8.80;99.90;;;;;;5020595;28;20481;-79
2023/05/16 04:02:53;;;;;;;9.37;8.10;;;8.80;99.90;;;;;;5021026;28;20075;-80
2023/05/16 04:05:21;;;;;;;9.83;7.97;;;8.90;99.90;;;;;;5002931;28;20030;-80
2023/05/16 04:07:46;;;;;;;11.27;8.07;;;8.80;99.90;;;;;;5020164;28;20075;-80
2023/05/16 04:10:13;;;;;;;10.37;8.40;;;8.80;99.90;;;;;;5021361;28;20029;-80
2023/05/16 04:12:43;;;;;;;9.80;8.00;;;8.80;99.90;;;;;;5021058;28;20139;-81
2023/05/16 04:15:11;;;;;;;10.37;8.80;;;8.90;99.90;;;;;;5022127;28;20034;-79
2023/05/16 04:17:42;;;;;;;11.53;8.60;;;8.90;99.90;;;;;;5022928;28;20238;-79
2023/05/16 04:20:15;;;;;;;11.67;8.67;;;8.90;99.90;;;;;;5027329;28;20038;-79
2023/05/16 04:22:43;;;;;;;12.47;8.77;;;8.90;99.90;;;;;;5025123;28;20037;-80
2023/05/16 04:25:10;;;;;;;12.00;8.97;;;8.90;99.90;;;;;;5024820;28;20205;-80
2023/05/16 04:27:35;;;;;;;11.53;8.03;;;8.90;99.90;;;;;;5026610;28;20064;-80
2023/05/16 04:30:03;;;;;;;11.10;8.20;;;8.90;99.90;;;;;;5025531;28;20026;-79
2023/05/16 04:32:33;;;;;;;10.50;8.30;;;8.90;99.90;;;;;;5026063;28;20030;-80
2023/05/16 04:35:08;;;;;;;12.53;8.83;;;9.00;99.90;;;;;;5025741;28;20089;-79
2023/05/16 04:37:34;;;;;;;11.55;9.07;;;9.00;99.90;;;;;;5029351;28;20066;-79
2023/05/16 04:40:00;;;;;;;11.90;8.73;;;9.00;99.90;;;;;;5029002;28;20040;-80
2023/05/16 04:42:26;;;;;;;10.23;8.17;;;9.10;99.90;;;;;;5028897;28;20037;-79
2023/05/16 04:44:55;;;;;;;12.63;9.00;;;9.10;99.90;;;;;;5030126;28;20029;-80
2023/05/16 04:47:22;;;;;;;11.27;8.50;;;9.10;99.90;;;;;;5026153;28;20451;-80
2023/05/16 04:49:53;;;;;;;14.73;9.60;;;9.20;99.90;;;;;;5025683;28;20496;-81
2023/05/16 04:52:18;;;;;;;9.90;8.87;;;9.20;99.90;;;;;;5025565;28;20087;-79
2023/05/16 04:54:44;;;;;;;12.07;9.77;;;9.30;99.90;;;;;;5026484;28;20506;-79
2023/05/16 04:57:09;;;;;;;13.13;9.73;;;9.30;99.90;;;;;;5024315;28;20235;-79
2023/05/16 04:59:35;;;;;;;14.77;9.70;;;9.30;99.90;;;;;;5028520;28;20038;-77
2023/05/16 05:02:00;;;;;;;16.10;9.90;;;9.30;99.90;;;;;;5026812;28;20033;-80
2023/05/16 05:04:26;;;;;;;14.80;9.90;;;9.40;99.90;;;;;;5028276;28;20042;-78
2023/05/16 05:06:51;;;;;;;12.13;9.57;;;9.40;99.90;;;;;;5028127;28;20042;-79
2023/05/16 05:09:17;;;;;;;13.13;10.50;;;9.50;99.90;;;;;;5031545;28;20037;-78
2023/05/16 05:11:42;;;;;;;12.80;10.07;;;9.50;99.90;;;;;;5033323;28;20049;-78
2023/05/16 05:14:15;;;;;;;13.87;10.67;;;9.60;99.90;;;;;;5034502;28;20045;-78
2023/05/16 05:16:43;;;;;;;13.37;10.00;;;9.60;99.90;;;;;;5034323;28;20056;-79
2023/05/16 05:19:11;;;;;;;12.63;10.17;;;9.70;99.90;;;;;;5033761;28;21128;-78
2023/05/16 05:21:36;;;;;;;13.70;10.57;;;9.70;99.90;;;;;;5025849;28;21458;-77
2023/05/16 05:24:03;;;;;;;13.73;10.57;;;9.80;99.90;;;;;;5024437;28;20057;-78
2023/05/16 05:26:28;;;;;;;12.00;9.40;;;9.90;99.90;;;;;;5025150;28;21112;-79
2023/05/16 05:28:54;;;;;;;13.27;10.70;;;10.00;99.90;;;;;;5022496;28;20034;-79
2023/05/16 05:31:20;;;;;;;13.80;10.07;;;10.10;99.90;;;;;;5018450;28;20022;-79
2023/05/16 05:33:45;;;;;;;14.83;10.77;;;10.20;99.90;;;;;;5014208;28;20030;-79
2023/05/16 05:36:13;;;;;;;11.50;9.23;;;10.20;99.90;;;;;;5015601;28;20053;-80
2023/05/16 05:38:39;;;;;;;12.53;10.30;;;10.30;99.90;;;;;;5014220;28;20179;-79
2023/05/16 05:41:05;;;;;;;13.87;11.10;;;10.40;99.90;;;;;;5016508;28;20928;-80
2023/05/16 05:43:31;;;;;;;15.17;11.17;;;10.40;99.90;;;;;;5022010;28;20029;-80
2023/05/16 05:45:59;;;;;;;13.10;10.40;;;10.40;99.90;;;;;;5021152;28;20029;-79
2023/05/16 05:48:25;;;;;;;12.70;9.73;;;10.50;99.90;;;;;;5020142;28;20040;-79
2023/05/16 05:50:51;;;;;;;11.57;9.17;;;10.60;99.90;;;;;;5020804;28;20026;-79
2023/05/16 05:53:20;;;;;;;13.20;10.15;;;10.60;99.90;;;;;;5020482;28;20033;-79
2023/05/16 05:55:45;;;;;;;11.57;8.95;;;10.70;99.90;;;;;;5020854;28;20051;-79
2023/05/16 05:58:11;;;;;;;11.18;9.77;;;10.80;99.90;;;;;;5021519;28;20026;-79
2023/05/16 06:00:37;;;;;;;16.27;11.18;;;10.80;99.90;;;;;;5020932;28;20033;-80
2023/05/16 06:03:02;;;;;;;14.75;10.63;;;10.80;99.90;;;;;;5020165;28;20038;-79
2023/05/16 06:05:28;;;;;;;15.68;11.10;;;10.80;99.90;;;;;;5020339;28;20026;-79
2023/05/16 06:07:53;;;;;;;17.30;10.73;;;10.80;99.90;;;;;;5021539;28;20045;-79
2023/05/16 06:10:20;;;;;;;15.17;11.70;;;10.80;99.90;;;;;;5022670;28;20029;-81
2023/05/16 06:12:45;;;;;;;16.07;12.10;;;10.80;99.90;;;;;;5021124;28;20057;-80
2023/05/16 06:15:11;;;;;;;21.17;18.15;;;10.80;99.90;;;;;;5020169;28;20075;-80
2023/05/16 06:17:37;;;;;;;32.95;28.15;;;10.90;99.90;;;;;;5020219;28;20025;-79
2023/05/16 06:20:03;;;;;;;17.40;12.48;;;10.90;99.90;;;;;;5018251;28;20026;-79
2023/05/16 06:22:29;;;;;;;17.75;13.75;;;11.00;99.90;;;;;;5020844;28;20564;-80
2023/05/16 06:24:55;;;;;;;14.60;11.18;;;11.00;99.90;;;;;;5020782;28;20025;-79
2023/05/16 06:29:50;;;;;;;14.57;10.65;;;11.10;99.90;;;;;;5015970;28;20049;-81
2023/05/16 06:32:16;;;;;;;13.73;10.40;;;11.20;99.90;;;;;;5021458;28;20036;-82
2023/05/16 06:34:41;;;;;;;16.67;11.20;;;11.20;99.90;;;;;;5021483;28;20045;-81
2023/05/16 06:37:07;;;;;;;15.52;11.18;;;11.20;99.90;;;;;;5021979;28;20036;-81
2023/05/16 06:39:32;;;;;;;14.35;11.48;;;11.10;99.90;;;;;;5023637;28;20093;-82
2023/05/16 06:41:58;;;;;;;14.88;11.05;;;11.10;99.90;;;;;;5021041;28;20034;-81
2023/05/16 06:44:23;;;;;;;13.80;10.52;;;11.10;99.90;;;;;;5020897;28;20089;-81
2023/05/16 06:46:49;;;;;;;13.15;10.68;;;11.10;99.90;;;;;;5020809;28;20095;-81
2023/05/16 06:49:14;;;;;;;13.27;11.50;;;11.10;99.90;;;;;;5022539;28;20033;-81
2023/05/16 06:51:40;;;;;;;13.23;11.27;;;11.10;99.90;;;;;;5021713;28;20041;-82
2023/05/16 06:54:06;;;;;;;15.45;11.27;;;11.10;99.90;;;;;;5021314;28;21131;-83
2023/05/16 06:56:31;;;;;;;14.32;10.82;;;11.10;99.90;;;;;;5021358;28;20089;-82
2023/05/16 06:58:57;;;;;;;19.25;12.18;;;11.10;99.90;;;;;;5022795;28;20061;-81
2023/05/16 07:01:23;;;;;;;13.55;10.95;;;11.20;99.90;;;;;;5023674;28;20115;-82
2023/05/16 07:03:48;;;;;;;12.65;10.50;;;11.30;99.90;;;;;;5023770;28;20040;-82
2023/05/16 07:06:14;;;;;;;15.05;11.52;;;11.40;99.90;;;;;;5023318;28;20037;-81
2023/05/16 07:08:39;;;;;;;14.60;11.15;;;11.50;99.90;;;;;;5021527;28;20034;-81
2023/05/16 07:11:05;;;;;;;12.73;10.55;;;11.50;99.90;;;;;;5021143;28;21151;-82
2023/05/16 07:13:30;;;;;;;13.73;10.93;;;11.60;99.90;;;;;;5013239;28;20080;-83
2023/05/16 07:15:56;;;;;;;14.70;11.60;;;11.60;99.90;;;;;;5017101;28;20116;-82
2023/05/16 07:18:22;;;;;;;14.88;10.57;;;11.70;99.90;;;;;;5016173;28;20029;-84
2023/05/16 07:20:47;;;;;;;12.77;10.93;;;11.70;99.90;;;;;;5014514;28;20041;-83
2023/05/16 07:23:13;;;;;;;14.27;10.57;;;11.80;99.90;;;;;;5021693;28;20033;-81
2023/05/16 07:25:38;;;;;;;11.88;10.60;;;11.90;99.90;;;;;;5022643;28;21103;-82
2023/05/16 07:28:04;;;;;;;14.02;11.40;;;11.90;99.90;;;;;;5023246;28;20034;-82
2023/05/16 07:30:30;;;;;;;12.27;10.70;;;11.90;99.90;;;;;;5022672;28;20029;-82
2023/05/16 07:32:55;;;;;;;12.77;10.82;;;12.00;99.90;;;;;;5021492;28;20033;-82
2023/05/16 07:35:21;;;;;;;13.05;11.43;;;12.00;99.90;;;;;;5022561;28;20033;-83
2023/05/16 07:37:46;;;;;;;15.05;10.65;;;12.00;99.90;;;;;;5021642;28;20042;-83
2023/05/16 07:40:13;;;;;;;12.00;10.65;;;12.00;99.90;;;;;;5022664;28;20037;-82
2023/05/16 07:42:38;;;;;;;13.25;10.25;;;12.00;99.90;;;;;;5021440;28;20097;-81
2023/05/16 07:45:05;;;;;;;13.98;11.80;;;12.00;99.90;;;;;;5019025;28;20120;-82
2023/05/16 07:47:31;;;;;;;16.75;10.60;;;12.00;99.90;;;;;;5020354;28;20493;-82
2023/05/16 07:49:57;;;;;;;12.95;10.77;;;12.00;99.90;;;;;;5020176;28;20064;-81
2023/05/16 07:52:22;;;;;;;15.63;10.85;;;12.00;99.90;;;;;;5020306;28;20033;-82
2023/05/16 07:54:48;;;;;;;11.98;10.63;;;12.00;99.90;;;;;;5021747;28;20040;-83
2023/05/16 07:57:16;;;;;;;13.93;11.50;;;12.00;99.90;;;;;;5020843;28;20029;-81
2023/05/16 07:59:43;;;;;;;15.45;11.13;;;12.00;99.90;;;;;;5020504;28;20136;-83
2023/05/16 08:02:10;;;;;;;15.20;11.80;;;12.00;99.90;;;;;;5020737;28;20466;-82
2023/05/16 08:04:36;;;;;;;14.27;10.75;;;12.00;99.90;;;;;;5019899;28;20065;-82
2023/05/16 08:07:02;;;;;;;12.88;11.35;;;11.90;99.90;;;;;;5021197;28;20108;-82
2023/05/16 08:09:27;;;;;;;14.07;10.85;;;11.90;99.90;;;;;;5020451;28;20025;-83
2023/05/16 08:11:53;;;;;;;13.82;10.70;;;11.90;99.90;;;;;;5019030;28;20022;-82
2023/05/16 08:14:18;;;;;;;13.65;10.85;;;11.90;99.90;;;;;;5020614;28;20734;-82
2023/05/16 08:16:44;;;;;;;13.65;10.98;;;11.90;99.90;;;;;;5020623;28;20033;-82
2023/05/16 08:19:09;;;;;;;13.80;11.25;;;11.90;99.90;;;;;;5020452;28;20034;-82
2023/05/16 08:21:35;;;;;;;15.15;12.50;;;11.80;99.90;;;;;;5020839;28;20139;-82
2023/05/16 08:24:01;;;;;;;14.98;11.57;;;11.80;99.90;;;;;;5019389;28;20089;-82
2023/05/16 08:26:26;;;;;;;14.32;12.57;;;11.80;99.90;;;;;;5020872;28;20045;-84
2023/05/16 08:28:52;;;;;;;14.93;13.00;;;11.70;99.90;;;;;;5020869;28;20148;-82
2023/05/16 08:31:17;;;;;;;14.70;12.82;;;11.70;99.90;;;;;;5020829;28;20021;-83
2023/05/16 08:33:43;;;;;;;14.88;12.70;;;11.70;99.90;;;;;;5019992;28;20126;-83
2023/05/16 08:36:09;;;;;;;18.67;13.15;;;11.60;99.90;;;;;;5021743;28;20018;-83
2023/05/16 08:38:35;;;;;;;15.90;12.90;;;11.60;99.90;;;;;;5020842;28;20034;-83
2023/05/16 08:41:00;;;;;;;14.18;12.65;;;11.50;99.90;;;;;;5020377;28;20114;-83
2023/05/16 08:43:26;;;;;;;16.60;14.15;;;11.50;99.90;;;;;;5018938;28;20038;-84
2023/05/16 08:45:52;;;;;;;15.45;13.85;;;11.50;99.90;;;;;;5019605;28;20177;-82
2023/05/16 08:48:21;;;;;;;17.15;14.30;;;11.50;99.90;;;;;;5019867;28;20038;-82
2023/05/16 08:50:47;;;;;;;19.83;14.52;;;11.50;99.90;;;;;;5018686;28;20025;-83
2023/05/16 08:53:16;;;;;;;19.65;14.07;;;11.50;99.90;;;;;;5019017;28;20046;-82
2023/05/16 08:55:44;;;;;;;17.13;14.98;;;11.40;99.90;;;;;;5019857;28;20033;-83
2023/05/16 08:58:11;;;;;;;18.73;15.45;;;11.40;99.90;;;;;;5019211;28;20045;-84
2023/05/16 09:00:37;;;;;;;17.98;14.52;;;11.40;99.90;;;;;;5000319;28;20496;-82
2023/05/16 09:03:03;;;;;;;15.77;14.18;;;11.50;99.90;;;;;;5015548;28;20072;-83
2023/05/16 09:05:29;;;;;;;16.92;14.63;;;11.50;99.90;;;;;;5014718;28;20098;-82
2023/05/16 09:07:55;;;;;;;17.42;15.20;;;11.50;99.90;;;;;;5013403;28;20049;-82
2023/05/16 09:10:20;;;;;;;19.25;15.52;;;11.50;99.90;;;;;;5013841;28;20033;-83
2023/05/16 09:12:46;;;;;;;18.35;16.17;;;11.60;99.90;;;;;;5016621;28;20732;-83
2023/05/16 09:15:12;;;;;;;20.17;16.25;;;11.60;99.90;;;;;;5022038;28;20040;-82
2023/05/16 09:17:47;;;;;;;19.02;15.45;;;11.60;99.90;;;;;;5020177;28;20056;-83
2023/05/16 09:20:16;;;;;;;19.23;15.45;;;11.70;99.90;;;;;;5021344;28;20106;-84
2023/05/16 09:22:58;;;;;;;18.52;15.02;;;11.70;99.90;;;;;;5022749;28;20044;-83
2023/05/16 09:25:27;;;;;;;17.88;15.02;;;11.80;99.90;;;;;;5023549;28;20043;-84
2023/05/16 09:27:57;;;;;;;18.27;15.20;;;11.80;99.90;;;;;;5025677;28;20113;-84
2023/05/16 09:30:32;;;;;;;17.30;15.15;;;11.80;99.90;;;;;;5024915;28;20040;-83
2023/05/16 09:32:58;;;;;;;19.13;15.82;;;11.80;99.90;;;;;;5025244;28;20041;-83
2023/05/16 09:35:24;;;;;;;18.13;15.88;;;11.80;99.90;;;;;;5024432;28;20037;-82
2023/05/16 09:37:53;;;;;;;20.55;16.30;;;11.70;99.90;;;;;;5024635;28;20040;-83
2023/05/16 09:40:22;;;;;;;18.95;16.02;;;11.70;99.90;;;;;;5026027;28;20029;-80
2023/05/16 09:43:04;;;;;;;20.20;16.30;;;11.70;99.90;;;;;;5007789;28;20034;-82
2023/05/16 09:45:31;;;;;;;17.13;15.43;;;11.80;99.90;;;;;;5024348;28;20032;-82
2023/05/16 09:48:07;;;;;;;16.65;14.95;;;11.80;99.90;;;;;;5024508;28;20045;-82
2023/05/16 09:50:34;;;;;;;16.55;14.68;;;11.80;99.90;;;;;;5023906;28;20021;-83
2023/05/16 09:53:01;;;;;;;18.60;16.60;;;11.90;99.90;;;;;;5024245;28;20033;-84
2023/05/16 09:55:26;;;;;;;17.48;15.30;;;11.90;99.90;;;;;;5024853;28;20443;-82
2023/05/16 09:57:52;;;;;;;20.42;15.77;;;11.90;99.90;;;;;;5023591;28;20101;-84
2023/05/16 10:00:18;;;;;;;23.65;16.50;;;11.90;99.90;;;;;;5022873;28;20034;-82
2023/05/16 10:02:43;;;;;;;20.38;17.08;;;11.90;99.90;;;;;;5022120;28;20445;-82
2023/05/16 10:05:09;;;;;;;20.67;17.60;;;11.90;99.90;;;;;;5021950;28;20025;-83
2023/05/16 10:07:36;;;;;;;22.42;19.15;;;11.90;99.90;;;;;;5023399;28;20048;-83
2023/05/16 10:10:06;;;;;;;19.10;15.85;;;12.00;99.90;;;;;;5023102;28;20038;-82
2023/05/16 10:12:32;;;;;;;16.70;14.75;;;12.00;99.90;;;;;;5022000;28;20061;-83
2023/05/16 10:15:00;;;;;;;19.40;15.77;;;12.00;99.90;;;;;;5021206;28;20055;-82
2023/05/16 10:17:30;;;;;;;16.95;15.10;;;11.90;99.90;;;;;;5021211;28;20038;-83
2023/05/16 10:19:57;;;;;;;18.70;16.45;;;11.90;99.90;;;;;;5021866;28;20362;-82
2023/05/16 10:22:24;;;;;;;19.55;16.85;;;11.90;99.90;;;;;;5020095;28;20081;-84
2023/05/16 10:25:09;;;;;;;20.45;16.48;;;11.90;99.90;;;;;;5020908;28;20025;-82
2023/05/16 10:27:35;;;;;;;;;;;11.80;99.90;;;;;;5021783;28;20053;-82
2023/05/16 10:30:01;;;;;;;19.27;17.20;;;11.80;99.90;;;;;;5021122;28;19917;-82
2023/05/16 10:32:28;;;;;;;18.73;16.73;;;11.80;99.90;;;;;;5020094;28;20033;-83
2023/05/16 10:34:56;;;;;;;20.90;18.42;;;11.80;99.90;;;;;;5021243;28;20398;-82
2023/05/16 10:37:24;;;;;;;18.77;16.17;;;11.80;99.90;;;;;;5022352;28;20037;-82
2023/05/16 10:39:50;;;;;;;19.50;16.92;;;11.80;99.90;;;;;;5022123;28;20025;-83
2023/05/16 10:42:17;;;;;;;22.25;18.33;;;11.80;99.90;;;;;;5020156;28;20034;-82
2023/05/16 10:44:43;;;;;;;18.65;16.27;;;11.80;99.90;;;;;;5020557;28;20045;-82
2023/05/16 10:47:10;;;;;;;20.13;18.02;;;11.70;99.90;;;;;;5022597;28;20601;-82
2023/05/16 10:49:40;;;;;;;19.88;17.75;;;11.70;99.90;;;;;;5022858;28;20065;-83
2023/05/16 10:52:14;;;;;;;32.97;26.60;;;11.70;99.90;;;;;;5022416;28;20041;-82
2023/05/16 10:54:50;;;;;;;20.95;18.58;;;11.60;99.90;;;;;;5022823;28;20795;-82
2023/05/16 10:57:20;;;;;;;23.02;19.73;;;11.60;99.90;;;;;;5022441;28;20097;-82
2023/05/16 10:59:50;;;;;;;20.48;18.27;;;11.60;99.90;;;;;;5022178;28;20025;-83
2023/05/16 11:02:38;;;;;;;21.48;19.17;;;11.60;99.90;;;;;;5022448;28;20036;-82
2023/05/16 11:05:05;;;;;;;22.00;19.27;;;11.70;99.90;;;;;;5020238;28;20034;-81
2023/05/16 11:07:35;;;;;;;23.00;20.13;;;11.70;99.90;;;;;;5023134;28;20042;-82
2023/05/16 11:10:13;;;;;;;20.83;18.30;;;11.70;99.90;;;;;;5020527;28;20029;-82
2023/05/16 11:12:42;;;;;;;20.60;18.55;;;11.70;99.90;;;;;;5021228;28;20049;-83
2023/05/16 11:15:20;;;;;;;20.23;18.02;;;11.70;99.90;;;;;;5023425;28;20030;-83
2023/05/16 11:17:46;;;;;;;22.08;18.23;;;11.80;99.90;;;;;;5018661;28;20044;-83
2023/05/16 11:20:26;;;;;;;19.42;17.33;;;11.80;99.90;;;;;;5016138;28;20018;-83
2023/05/16 11:23:17;;;;;;;23.00;19.23;;;11.80;99.90;;;;;;5017133;28;20041;-83
2023/05/16 11:25:55;;;;;;;22.13;19.15;;;11.90;99.90;;;;;;5017002;28;20021;-82
2023/05/16 11:28:24;;;;;;;23.88;19.45;;;11.90;99.90;;;;;;5016099;28;20045;-83
2023/05/16 11:30:54;;;;;;;21.08;18.85;;;11.90;99.90;;;;;;5016565;28;20045;-82
2023/05/16 11:33:21;;;;;;;21.30;17.98;;;12.00;99.90;;;;;;5021900;28;20044;-82
2023/05/16 11:36:07;;;;;;;21.13;18.83;;;12.10;99.90;;;;;;5020500;28;20129;-82
2023/05/16 11:38:34;;;;;;;19.00;16.30;;;12.20;99.90;;;;;;5021432;28;20036;-82
2023/05/16 11:41:07;;;;;;;18.77;16.73;;;12.30;99.90;;;;;;5022454;28;20117;-82
2023/05/16 11:43:42;;;;;;;21.02;17.08;;;12.30;99.90;;;;;;5021880;28;20120;-82
2023/05/16 11:46:11;;;;;;;21.45;18.15;;;12.30;99.90;;;;;;5019595;28;20057;-82
2023/05/16 11:48:37;;;;;;;24.35;20.20;;;12.30;99.90;;;;;;5021559;28;20037;-82
2023/05/16 11:51:03;;;;;;;20.55;17.38;;;12.30;99.90;;;;;;5022536;28;20083;-82
2023/05/16 11:53:28;;;;;;;19.77;16.50;;;12.30;99.90;;;;;;5021827;28;20044;-82
2023/05/16 11:55:54;;;;;;;22.13;17.98;;;12.40;99.90;;;;;;5022043;28;20081;-83
2023/05/16 11:58:20;;;;;;;20.25;18.25;;;12.40;99.90;;;;;;5022187;28;20030;-83
2023/05/16 12:00:50;;;;;;;20.00;17.27;;;12.60;99.90;;;;;;5023561;28;20034;-82
2023/05/16 12:03:17;;;;;;;20.80;18.38;;;12.60;99.90;;;;;;5021521;28;20040;-82
2023/05/16 12:05:53;;;;;;;20.83;17.23;;;12.70;99.90;;;;;;5019195;28;20050;-82
2023/05/16 12:08:20;;;;;;;17.77;15.88;;;12.90;99.90;;;;;;5018913;28;20069;-82
2023/05/16 12:10:48;;;;;;;21.95;16.95;;;13.00;99.90;;;;;;5019854;28;20221;-83
2023/05/16 12:13:14;;;;;;;19.70;16.75;;;13.10;99.90;;;;;;5016774;28;20116;-84
2023/05/16 12:15:40;;;;;;;19.45;16.42;;;13.20;99.90;;;;;;5017678;28;20045;-83
2023/05/16 12:18:06;;;;;;;19.10;16.48;;;13.30;99.90;;;;;;5017822;28;20088;-83
2023/05/16 12:20:32;;;;;;;17.23;15.43;;;13.40;99.90;;;;;;5016782;28;20085;-83
2023/05/16 12:22:58;;;;;;;18.27;15.35;;;13.50;99.90;;;;;;5017389;28;20035;-84
2023/05/16 12:25:31;;;;;;;18.13;15.10;;;13.60;99.90;;;;;;5017613;28;20052;-82
2023/05/16 12:27:59;;;;;;;17.10;15.15;;;13.80;99.90;;;;;;5015370;28;20064;-83
2023/05/16 12:30:26;;;;;;;15.90;13.85;;;14.00;99.90;;;;;;5017702;28;20029;-83
2023/05/16 12:32:59;;;;;;;16.90;14.93;;;14.10;99.90;;;;;;5017224;28;20037;-83
2023/05/16 12:35:29;;;;;;;16.55;14.65;;;14.20;99.90;;;;;;5016814;28;20034;-84
2023/05/16 12:37:55;;;;;;;19.10;15.32;;;14.20;99.90;;;;;;5010335;28;20095;-77
2023/05/16 12:40:20;;;;;;;19.13;14.73;;;14.30;99.90;;;;;;5007953;28;20048;-77
2023/05/16 12:42:55;;;;;;;14.88;13.38;;;14.30;99.90;;;;;;5007924;28;20030;-77
2023/05/16 12:45:21;;;;;;;15.60;13.95;;;14.30;99.90;;;;;;5007549;28;20034;-77